Time;durP1;ratioP1;P1;durP2;ratioP2;P2;SDS_P1;SDS_P2;PMS_P1;PMS_P2;Temp;Humidity;BMP_temperature;BMP_pressure;BME280_temperature;BME280_humidity;BME280_pressure;Samples;Min_cycle;Max_cycle;Signal;HPM_P1;HPM_P2
2023/02/11 00:00:57;;;;;;;52.72;32.38;;;;;;;1.13;100.00;102411.72;5033780;28;20576;-74
2023/02/11 00:03:24;;;;;;;59.92;32.95;;;;;;;1.09;100.00;102415.16;5033897;28;20212;-74
2023/02/11 00:05:58;;;;;;;51.22;31.35;;;;;;;1.11;100.00;102405.47;5033982;28;20210;-75
2023/02/11 00:08:25;;;;;;;54.95;32.10;;;;;;;1.15;100.00;102409.09;5035615;28;20219;-76
2023/02/11 00:10:54;;;;;;;53.03;33.03;;;;;;;1.25;100.00;102408.47;5035090;28;20199;-74
2023/02/11 00:13:20;;;;;;;50.88;31.10;;;;;;;1.31;100.00;102405.06;5035378;28;20271;-72
2023/02/11 00:15:47;;;;;;;55.58;32.42;;;;;;;1.33;100.00;102404.22;5035268;28;20587;-76
2023/02/11 00:18:13;;;;;;;50.40;33.33;;;;;;;1.39;100.00;102403.50;5025445;28;20209;-74
2023/02/11 00:20:40;;;;;;;57.15;33.58;;;;;;;1.40;100.00;102402.63;5023821;28;20208;-73
2023/02/11 00:23:07;;;;;;;55.90;33.17;;;;;;;1.43;100.00;102395.66;5034544;28;20242;-74
2023/02/11 00:25:36;;;;;;;51.40;32.95;;;;;;;1.48;100.00;102392.22;5033405;28;20292;-74
2023/02/11 00:28:04;;;;;;;53.90;33.28;;;;;;;1.50;100.00;102386.06;5033437;28;20709;-74
2023/02/11 00:30:30;;;;;;;52.22;30.75;;;;;;;1.56;100.00;102386.22;5034115;28;20602;-74
2023/02/11 00:32:57;;;;;;;57.38;34.10;;;;;;;1.60;100.00;102384.50;5033659;28;20221;-75
2023/02/11 00:35:24;;;;;;;50.75;32.08;;;;;;;1.61;100.00;102383.66;5034093;28;20200;-76
2023/02/11 00:37:52;;;;;;;55.22;33.38;;;;;;;1.69;100.00;102389.16;5033066;28;20204;-76
2023/02/11 00:40:19;;;;;;;52.75;32.90;;;;;;;1.63;100.00;102384.59;5037147;28;20207;-74
2023/02/11 00:42:46;;;;;;;55.72;33.53;;;;;;;1.60;100.00;102390.72;5036123;28;20287;-75
2023/02/11 00:45:14;;;;;;;52.33;32.28;;;;;;;1.67;100.00;102378.47;5036973;28;20211;-75
2023/02/11 00:47:41;;;;;;;52.58;31.02;;;;;;;1.63;100.00;102377.53;5037052;28;20215;-77
2023/02/11 00:50:07;;;;;;;54.00;32.08;;;;;;;1.55;100.00;102370.25;5037455;28;20196;-74
2023/02/11 00:52:34;;;;;;;48.95;31.88;;;;;;;1.61;100.00;102373.03;5037366;28;20283;-74
2023/02/11 00:55:01;;;;;;;52.65;31.13;;;;;;;1.67;100.00;102376.75;5037339;28;20689;-75
2023/02/11 00:57:27;;;;;;;48.75;31.80;;;;;;;1.76;100.00;102376.03;5037031;28;20210;-76
2023/02/11 00:59:54;;;;;;;57.22;33.88;;;;;;;1.68;100.00;102372.31;5036663;28;20699;-75
2023/02/11 01:02:22;;;;;;;51.47;32.38;;;;;;;1.82;100.00;102369.97;5068215;22;20313;-75
2023/02/11 01:04:48;;;;;;;51.38;30.73;;;;;;;1.88;100.00;102368.34;5072227;28;20200;-74
2023/02/11 01:07:15;;;;;;;57.47;31.60;;;;;;;1.81;100.00;102374.38;5066502;28;20201;-75
2023/02/11 01:09:41;;;;;;;52.20;31.85;;;;;;;1.85;100.00;102372.69;5061059;28;20201;-75
2023/02/11 01:12:08;;;;;;;56.58;30.90;;;;;;;1.88;100.00;102373.66;5051318;28;20235;-73
2023/02/11 01:14:34;;;;;;;53.97;32.13;;;;;;;1.93;100.00;102365.78;5046892;28;20210;-75
2023/02/11 01:17:01;;;;;;;57.30;33.55;;;;;;;1.97;100.00;102364.09;5066636;28;20264;-73
2023/02/11 01:19:29;;;;;;;55.58;32.20;;;;;;;1.95;100.00;102364.06;5062689;28;20212;-76
2023/02/11 01:21:55;;;;;;;52.10;31.63;;;;;;;1.83;100.00;102359.38;5040363;28;20216;-76
2023/02/11 01:24:22;;;;;;;60.65;33.40;;;;;;;1.88;100.00;102357.72;5037855;28;20204;-75
2023/02/11 01:26:48;;;;;;;54.85;30.25;;;;;;;1.83;100.00;102353.16;5045779;28;20199;-75
2023/02/11 01:29:15;;;;;;;50.75;32.05;;;;;;;1.76;100.00;102349.44;5038980;28;20227;-76
2023/02/11 01:31:41;;;;;;;53.40;32.13;;;;;;;1.84;100.00;102350.53;5035906;28;20223;-74
2023/02/11 01:34:08;;;;;;;54.97;31.77;;;;;;;1.90;100.00;102352.44;5036211;28;20214;-75
2023/02/11 01:36:37;;;;;;;53.15;31.33;;;;;;;1.91;100.00;102356.00;5039987;28;20201;-75
2023/02/11 01:39:04;;;;;;;56.10;31.98;;;;;;;1.90;100.00;102347.13;5034449;28;20235;-76
2023/02/11 01:41:31;;;;;;;54.13;31.40;;;;;;;1.79;100.00;102351.31;5037223;28;20572;-75
2023/02/11 01:43:58;;;;;;;48.53;31.80;;;;;;;1.85;100.00;102362.03;5034327;28;20200;-73
2023/02/11 01:46:31;;;;;;;51.70;31.20;;;;;;;1.86;100.00;102340.84;5039428;28;20210;-75
2023/02/11 01:49:02;;;;;;;55.38;32.55;;;;;;;1.90;100.00;102344.47;5055067;28;20227;-77
2023/02/11 01:51:34;;;;;;;55.22;31.20;;;;;;;1.94;100.00;102333.00;5046003;28;20197;-76
2023/02/11 01:59:40;;;;;;;71.95;32.30;;;;;;;1.68;100.00;102321.84;5036092;28;20189;-75
2023/02/11 02:02:12;;;;;;;52.78;30.55;;;;;;;1.69;100.00;102325.38;5046780;28;20249;-75
2023/02/11 02:04:44;;;;;;;55.42;33.10;;;;;;;1.67;100.00;102328.00;5055636;28;20192;-76
2023/02/11 02:07:14;;;;;;;52.40;30.75;;;;;;;1.72;100.00;102315.75;5046236;28;20721;-74
2023/02/11 02:09:48;;;;;;;57.42;31.77;;;;;;;1.72;100.00;102306.84;5048624;28;20220;-75
2023/02/11 02:12:14;;;;;;;55.47;33.20;;;;;;;1.73;100.00;102306.88;5050264;28;20248;-75
2023/02/11 02:14:42;;;;;;;58.58;33.42;;;;;;;1.84;100.00;102304.47;5057280;28;20203;-75
2023/02/11 02:17:17;;;;;;;57.15;33.90;;;;;;;1.80;100.00;102303.50;5053449;28;20205;-73
2023/02/11 02:20:15;;;;;;;52.83;32.30;;;;;;;1.75;100.00;102302.50;5054119;28;20215;-75
2023/02/11 02:23:12;;;;;;;59.35;31.42;;;;;;;1.84;100.00;102302.69;5048598;28;20629;-75
2023/02/11 02:26:02;;;;;;;55.47;31.90;;;;;;;1.90;100.00;102304.59;5069233;28;20195;-74
2023/02/11 02:28:46;;;;;;;55.03;31.70;;;;;;;1.90;100.00;102301.03;5018658;28;20229;-74
2023/02/11 02:31:26;;;;;;;59.17;31.35;;;;;;;1.88;100.00;102296.59;5018594;28;20240;-74
2023/02/11 02:33:56;;;;;;;57.38;33.28;;;;;;;1.87;100.00;102293.91;5021207;28;20194;-75
2023/02/11 02:36:28;;;;;;;54.55;30.70;;;;;;;1.96;100.00;102295.84;5025756;28;20197;-74
2023/02/11 02:38:58;;;;;;;55.10;32.17;;;;;;;1.98;100.00;102302.97;5038206;28;20192;-74
2023/02/11 02:41:29;;;;;;;55.35;33.22;;;;;;;1.99;100.00;102309.19;5041468;28;20188;-76
2023/02/11 02:43:56;;;;;;;52.90;31.95;;;;;;;2.03;100.00;102303.06;5045463;28;20550;-74
2023/02/11 02:46:26;;;;;;;58.50;32.05;;;;;;;2.07;100.00;102302.28;5040973;28;20286;-75
2023/02/11 02:48:53;;;;;;;57.50;31.30;;;;;;;2.00;100.00;102295.06;5036399;28;20230;-74
2023/02/11 02:51:37;;;;;;;54.33;32.85;;;;;;;2.02;100.00;102306.63;5040209;28;20282;-75
2023/02/11 02:54:35;;;;;;;58.75;33.35;;;;;;;2.05;100.00;102306.66;5046680;28;20210;-74
2023/02/11 02:57:10;;;;;;;55.85;31.05;;;;;;;2.04;100.00;102296.91;5049958;28;20201;-74
2023/02/11 02:59:51;;;;;;;55.15;32.03;;;;;;;2.08;100.00;102301.41;5015539;28;20201;-74
2023/02/11 03:02:27;;;;;;;53.67;32.00;;;;;;;2.03;100.00;102293.31;5029355;28;20227;-75
2023/02/11 03:05:03;;;;;;;55.88;30.90;;;;;;;2.01;100.00;102288.84;5051891;28;20200;-75
2023/02/11 03:07:39;;;;;;;59.35;32.97;;;;;;;1.99;100.00;102283.53;5052983;28;20200;-74
2023/02/11 03:10:10;;;;;;;52.15;32.80;;;;;;;2.02;100.00;102293.31;5054205;28;20222;-75
2023/02/11 03:12:38;;;;;;;55.63;32.22;;;;;;;1.98;100.00;102305.63;5038086;28;20223;-74
2023/02/11 03:15:06;;;;;;;56.63;32.00;;;;;;;2.08;100.00;102296.06;5048672;28;20665;-74
2023/02/11 03:17:35;;;;;;;50.78;31.02;;;;;;;2.10;100.00;102299.66;5047891;28;20651;-74
2023/02/11 03:20:03;;;;;;;53.88;31.45;;;;;;;2.12;100.00;102300.59;5050266;28;20220;-73
2023/02/11 03:22:35;;;;;;;57.25;32.40;;;;;;;2.19;100.00;102297.19;5063564;28;20268;-74
2023/02/11 03:25:02;;;;;;;53.15;32.05;;;;;;;2.25;100.00;102299.97;5072810;28;20179;-73
2023/02/11 03:27:37;;;;;;;53.30;32.75;;;;;;;2.24;100.00;102290.22;5056926;28;20252;-74
2023/02/11 03:30:11;;;;;;;51.03;30.70;;;;;;;2.17;100.00;102285.66;5055898;28;20211;-74
2023/02/11 03:32:41;;;;;;;53.00;32.60;;;;;;;2.22;100.00;102275.09;5050148;28;20482;-73
2023/02/11 03:35:11;;;;;;;53.45;30.92;;;;;;;2.12;100.00;102271.34;5040299;28;20208;-74
2023/02/11 03:37:43;;;;;;;50.72;32.53;;;;;;;2.12;100.00;102266.03;5050005;28;20206;-73
2023/02/11 03:40:13;;;;;;;54.65;32.38;;;;;;;2.04;100.00;102262.34;5048849;28;20195;-74
2023/02/11 03:42:43;;;;;;;51.10;30.33;;;;;;;2.11;100.00;102243.00;5063915;28;20226;-74
2023/02/11 03:45:13;;;;;;;64.22;32.97;;;;;;;2.03;100.00;102240.16;5069039;28;20187;-75
2023/02/11 03:47:45;;;;;;;53.92;31.38;;;;;;;1.89;100.00;102233.72;5048244;28;20208;-74
2023/02/11 03:50:16;;;;;;;51.03;31.85;;;;;;;1.93;100.00;102227.59;5059594;28;20212;-74
2023/02/11 03:52:45;;;;;;;55.58;33.25;;;;;;;2.08;100.00;102217.25;5050898;28;20777;-75
2023/02/11 03:55:15;;;;;;;52.40;32.30;;;;;;;1.88;100.00;102203.59;5044183;28;20215;-74
2023/02/11 03:57:44;;;;;;;50.88;31.83;;;;;;;1.94;100.00;102193.94;5053608;28;20197;-74
2023/02/11 04:00:12;;;;;;;58.95;34.25;;;;;;;1.97;100.00;102200.22;5053990;28;20204;-75
2023/02/11 04:02:39;;;;;;;48.78;30.48;;;;;;;1.94;100.00;102193.94;5052507;28;20232;-77
2023/02/11 04:05:08;;;;;;;50.15;31.08;;;;;;;1.88;100.00;102187.66;5041640;28;20199;-75
2023/02/11 04:07:35;;;;;;;48.55;30.15;;;;;;;1.95;100.00;102190.44;5040371;28;20207;-74
2023/02/11 04:10:03;;;;;;;59.05;30.42;;;;;;;1.94;100.00;102207.22;5051653;28;20311;-74
2023/02/11 04:12:30;;;;;;;55.97;30.70;;;;;;;1.97;100.00;102212.63;5051333;28;20221;-75
2023/02/11 04:14:56;;;;;;;45.97;29.90;;;;;;;2.03;100.00;102210.94;5043038;28;20197;-76
2023/02/11 04:17:23;;;;;;;53.28;30.45;;;;;;;1.97;100.00;102233.88;5037863;28;20223;-74
2023/02/11 04:19:50;;;;;;;51.05;29.95;;;;;;;2.20;100.00;102231.63;5048321;28;20199;-76
2023/02/11 04:22:16;;;;;;;56.85;30.52;;;;;;;2.17;100.00;102232.50;5057822;28;20223;-74
2023/02/11 04:24:43;;;;;;;49.47;28.33;;;;;;;2.17;100.00;102226.25;5053037;28;20685;-74
2023/02/11 04:27:11;;;;;;;51.58;29.17;;;;;;;2.18;100.00;102228.06;5054116;28;20191;-76
2023/02/11 04:29:38;;;;;;;53.10;30.63;;;;;;;2.04;100.00;102228.69;5036709;28;20223;-75
2023/02/11 04:32:05;;;;;;;57.80;31.23;;;;;;;2.17;100.00;102236.88;5038740;28;20224;-75
2023/02/11 04:34:31;;;;;;;50.88;28.98;;;;;;;2.21;100.00;102229.00;5038074;28;20204;-75
2023/02/11 04:36:58;;;;;;;52.92;29.08;;;;;;;2.30;100.00;102242.44;5035437;28;20212;-74
2023/02/11 04:39:24;;;;;;;44.25;26.80;;;;;;;2.38;100.00;102242.59;5042984;28;20206;-73
2023/02/11 04:41:51;;;;;;;44.65;27.33;;;;;;;2.45;100.00;102248.94;5049431;28;20303;-74
2023/02/11 04:44:19;;;;;;;43.90;27.92;;;;;;;2.41;100.00;102237.31;5064557;28;20282;-73
2023/02/11 04:46:45;;;;;;;41.83;26.15;;;;;;;2.44;100.00;102231.16;5044578;28;20209;-75
2023/02/11 04:49:13;;;;;;;49.38;28.80;;;;;;;2.40;100.00;102222.25;5045674;28;20256;-75
2023/02/11 04:51:40;;;;;;;48.35;29.50;;;;;;;2.39;100.00;102212.47;5043257;28;20213;-75
2023/02/11 04:54:07;;;;;;;50.65;29.90;;;;;;;2.33;100.00;102214.13;5041097;28;20618;-74
2023/02/11 04:56:33;;;;;;;46.58;28.90;;;;;;;2.38;100.00;102209.81;5037805;28;20292;-75
2023/02/11 04:59:00;;;;;;;46.58;28.17;;;;;;;2.37;100.00;102202.69;5041055;28;20209;-75
2023/02/11 05:01:28;;;;;;;45.28;27.65;;;;;;;2.38;100.00;102215.13;5035940;28;20229;-75
2023/02/11 05:03:54;;;;;;;47.85;28.17;;;;;;;2.33;100.00;102211.47;5032790;28;20196;-76
2023/02/11 05:06:21;;;;;;;48.67;26.80;;;;;;;2.37;100.00;102205.34;5037145;28;20299;-76
2023/02/11 05:08:48;;;;;;;43.53;26.60;;;;;;;2.40;100.00;102200.97;5036690;28;20294;-75
2023/02/11 05:11:17;;;;;;;43.33;27.75;;;;;;;2.35;100.00;102196.44;5037254;28;20299;-75
2023/02/11 05:13:43;;;;;;;45.50;25.73;;;;;;;2.42;100.00;102187.69;5036639;28;20213;-76
2023/02/11 05:16:10;;;;;;;47.65;27.35;;;;;;;2.34;100.00;102190.22;5037072;28;20209;-75
2023/02/11 05:18:39;;;;;;;43.42;26.33;;;;;;;2.38;100.00;102194.72;5035996;28;20210;-74
2023/02/11 05:21:06;;;;;;;41.55;26.10;;;;;;;2.28;100.00;102190.09;5036312;28;20210;-76
2023/02/11 05:23:34;;;;;;;50.08;25.45;;;;;;;2.33;100.00;102184.88;5036224;28;20232;-75
2023/02/11 05:26:00;;;;;;;42.63;26.95;;;;;;;2.20;100.00;102184.69;5035198;28;20201;-75
2023/02/11 05:28:27;;;;;;;42.03;25.63;;;;;;;2.18;100.00;102194.38;5037971;28;20235;-75
2023/02/11 05:30:54;;;;;;;44.28;26.38;;;;;;;2.22;100.00;102195.34;5040055;28;20243;-75
2023/02/11 05:33:21;;;;;;;46.17;26.23;;;;;;;2.25;100.00;102190.97;5050483;28;20221;-75
2023/02/11 05:35:49;;;;;;;42.35;26.15;;;;;;;2.25;100.00;102206.03;5037248;28;20304;-75
2023/02/11 05:38:15;;;;;;;48.55;26.65;;;;;;;2.32;100.00;102199.06;5028879;28;20214;-75
2023/02/11 05:40:42;;;;;;;47.13;26.38;;;;;;;2.42;100.00;102211.63;5023642;28;20636;-75
2023/02/11 05:43:09;;;;;;;39.83;26.10;;;;;;;2.22;100.00;102209.53;5039858;28;20244;-74
2023/02/11 05:45:36;;;;;;;42.97;25.55;;;;;;;2.30;100.00;102199.91;5050553;28;20268;-75
2023/02/11 05:48:02;;;;;;;41.80;26.38;;;;;;;2.31;100.00;102216.78;5040738;28;20214;-76
2023/02/11 05:50:29;;;;;;;42.53;25.73;;;;;;;2.34;100.00;102223.91;5036500;28;20325;-76
2023/02/11 05:52:57;;;;;;;41.78;24.55;;;;;;;2.42;100.00;102231.16;5035418;28;20227;-75
2023/02/11 05:55:23;;;;;;;52.40;28.75;;;;;;;2.33;100.00;102217.72;5037406;28;20264;-75
2023/02/11 05:57:50;;;;;;;44.50;27.13;;;;;;;2.36;100.00;102231.03;5038051;28;20209;-73
2023/02/11 06:00:17;;;;;;;46.97;27.10;;;;;;;2.41;100.00;102233.78;5035627;28;20200;-75
2023/02/11 06:02:43;;;;;;;41.47;27.02;;;;;;;2.31;100.00;102238.06;5033428;28;20227;-76
2023/02/11 06:05:10;;;;;;;44.55;26.25;;;;;;;2.32;100.00;102215.91;5035660;28;20691;-74
2023/02/11 06:07:37;;;;;;;44.53;24.80;;;;;;;2.36;100.00;102228.38;5034112;28;20284;-75
2023/02/11 06:10:06;;;;;;;42.15;26.55;;;;;;;2.32;100.00;102217.66;5019552;28;20221;-75
2023/02/11 06:12:32;;;;;;;44.40;26.40;;;;;;;2.41;100.00;102215.16;5035276;28;20220;-75
2023/02/11 06:14:59;;;;;;;44.00;25.55;;;;;;;2.41;100.00;102229.34;5024146;28;20212;-74
2023/02/11 06:17:27;;;;;;;44.67;27.02;;;;;;;2.39;100.00;102224.88;5014971;28;20219;-74
2023/02/11 06:19:54;;;;;;;43.53;27.13;;;;;;;2.41;100.00;102210.72;5029356;28;20202;-74
2023/02/11 06:22:20;;;;;;;41.72;25.73;;;;;;;2.43;100.00;102230.28;5034177;28;20583;-74
2023/02/11 06:24:47;;;;;;;43.55;24.63;;;;;;;2.48;100.00;102238.34;5034955;28;20196;-76
2023/02/11 06:27:15;;;;;;;40.13;25.45;;;;;;;2.53;100.00;102241.97;5041962;28;20267;-74
2023/02/11 06:29:41;;;;;;;45.25;26.95;;;;;;;2.52;100.00;102232.19;5035427;28;20725;-74
2023/02/11 06:32:08;;;;;;;45.05;26.63;;;;;;;2.39;100.00;102211.56;5032376;28;20302;-74
2023/02/11 06:34:34;;;;;;;42.60;26.05;;;;;;;2.40;100.00;102221.38;5025594;28;20207;-74
2023/02/11 06:37:01;;;;;;;40.70;24.52;;;;;;;2.37;100.00;102221.28;5026084;28;20655;-74
2023/02/11 06:39:27;;;;;;;38.35;24.60;;;;;;;2.27;100.00;102222.91;5015132;28;20196;-73
2023/02/11 06:41:54;;;;;;;41.78;25.77;;;;;;;2.25;100.00;102212.22;5042489;28;20253;-74
2023/02/11 06:44:22;;;;;;;45.67;27.23;;;;;;;2.24;100.00;102209.56;5049700;28;20663;-74
2023/02/11 06:46:48;;;;;;;44.83;26.88;;;;;;;2.25;100.00;102209.56;5036882;28;20311;-74
2023/02/11 06:49:15;;;;;;;41.75;24.70;;;;;;;2.18;100.00;102215.66;5038111;28;20209;-74
2023/02/11 06:51:42;;;;;;;42.92;25.17;;;;;;;2.16;100.00;102217.38;5038921;28;20231;-74
2023/02/11 06:54:08;;;;;;;47.10;27.13;;;;;;;2.04;100.00;102212.75;5021743;28;20196;-75
2023/02/11 06:56:37;;;;;;;47.72;26.35;;;;;;;2.03;100.00;102212.72;5018758;28;20204;-73
2023/02/11 06:59:04;;;;;;;43.45;26.02;;;;;;;1.94;100.00;102212.53;5016301;28;20213;-73
2023/02/11 07:01:32;;;;;;;46.75;27.05;;;;;;;2.01;100.00;102211.78;5016301;28;20303;-74
2023/02/11 07:03:58;;;;;;;42.00;24.85;;;;;;;1.97;100.00;102204.63;5058023;22;20608;-74
2023/02/11 07:06:26;;;;;;;46.25;27.05;;;;;;;1.94;100.00;102205.44;5053589;28;20576;-74
2023/02/11 07:08:54;;;;;;;44.90;25.35;;;;;;;2.02;100.00;102195.88;5053024;28;20202;-74
2023/02/11 07:11:24;;;;;;;44.33;25.00;;;;;;;2.03;100.00;102202.97;5053751;28;20239;-73
2023/02/11 07:13:51;;;;;;;43.42;26.17;;;;;;;2.12;100.00;102196.91;5053886;28;20227;-74
2023/02/11 07:16:18;;;;;;;40.50;24.05;;;;;;;2.13;100.00;102197.84;5053474;28;20297;-74
2023/02/11 07:18:47;;;;;;;37.70;24.95;;;;;;;2.17;100.00;102204.97;5053152;28;20209;-73
2023/02/11 07:21:16;;;;;;;42.80;25.98;;;;;;;2.27;100.00;102207.84;5056123;28;20203;-74
2023/02/11 07:23:43;;;;;;;39.83;25.23;;;;;;;2.35;100.00;102199.97;5069784;28;20227;-73
2023/02/11 07:26:12;;;;;;;39.40;24.88;;;;;;;2.41;100.00;102204.53;5060344;28;20228;-74
2023/02/11 07:28:40;;;;;;;40.63;23.63;;;;;;;2.47;100.00;102207.31;5062926;28;20202;-73
2023/02/11 07:31:07;;;;;;;34.88;22.85;;;;;;;2.53;100.00;102217.13;5038871;28;20231;-74
2023/02/11 07:33:34;;;;;;;41.67;24.75;;;;;;;2.48;100.00;102206.41;5038968;28;20228;-73
2023/02/11 07:36:03;;;;;;;46.58;26.67;;;;;;;2.58;100.00;102211.03;5034211;28;20211;-74
2023/02/11 07:38:29;;;;;;;42.58;25.02;;;;;;;2.59;100.00;102207.47;5034380;28;20205;-76
2023/02/11 07:41:00;;;;;;;41.63;23.50;;;;;;;2.62;100.00;102199.56;5033468;28;20199;-73
2023/02/11 07:43:26;;;;;;;38.67;25.40;;;;;;;2.76;100.00;102202.44;5031945;28;20224;-74
2023/02/11 07:45:53;;;;;;;41.83;26.20;;;;;;;2.93;100.00;102200.03;5033506;28;20203;-73
2023/02/11 07:48:20;;;;;;;43.42;24.17;;;;;;;3.17;100.00;102203.94;5032759;28;20223;-74
2023/02/11 07:50:47;;;;;;;40.33;24.02;;;;;;;3.49;100.00;102231.88;5037013;28;20707;-74
2023/02/11 07:53:15;;;;;;;40.40;24.13;;;;;;;4.01;100.00;102222.72;5040181;28;20230;-75
2023/02/11 07:55:43;;;;;;;38.38;22.45;;;;;;;4.61;100.00;102221.50;5042940;28;20229;-74
2023/02/11 07:58:09;;;;;;;40.20;23.30;;;;;;;4.62;100.00;102234.00;5042082;28;20207;-73
2023/02/11 08:00:36;;;;;;;40.47;23.52;;;;;;;4.81;100.00;102227.88;5041433;28;20810;-73
2023/02/11 08:03:03;;;;;;;33.88;23.90;;;;;;;4.77;100.00;102228.78;5040585;28;20231;-74
2023/02/11 08:05:29;;;;;;;38.50;23.73;;;;;;;4.19;100.00;102241.59;5041656;28;20632;-73
2023/02/11 08:07:56;;;;;;;37.30;23.73;;;;;;;4.05;100.00;102244.13;5039818;28;20484;-74
2023/02/11 08:10:24;;;;;;;38.78;23.85;;;;;;;4.00;100.00;102244.91;5040818;28;20225;-73
2023/02/11 08:12:50;;;;;;;38.65;22.15;;;;;;;4.02;100.00;102243.16;5039895;28;20592;-75
2023/02/11 08:15:17;;;;;;;34.50;24.83;;;;;;;3.84;100.00;102247.41;5040420;28;20204;-74
2023/02/11 08:17:43;;;;;;;38.97;24.40;;;;;;;3.81;100.00;102241.16;5038894;28;20294;-75
2023/02/11 08:20:11;;;;;;;35.75;22.85;;;;;;;3.83;100.00;102247.41;5038333;28;20203;-74
2023/02/11 08:22:37;;;;;;;36.97;24.30;;;;;;;3.65;100.00;102256.06;5042302;28;20334;-74
2023/02/11 08:25:04;;;;;;;37.67;26.05;;;;;;;3.72;100.00;102263.25;5042338;28;20209;-75
2023/02/11 08:27:33;;;;;;;37.85;25.27;;;;;;;3.58;100.00;102262.19;5038619;28;20219;-74
2023/02/11 08:30:00;;;;;;;38.97;23.98;;;;;;;3.64;100.00;102264.91;5039762;28;20306;-75
2023/02/11 08:32:27;;;;;;;32.97;21.25;;;;;;;3.73;100.00;102270.38;5039816;28;20224;-73
2023/02/11 08:34:54;;;;;;;39.90;24.65;;;;;;;3.83;100.00;102274.94;5040498;28;20211;-75
2023/02/11 08:37:21;;;;;;;43.40;24.70;;;;;;;3.91;100.00;102286.63;5041487;28;20212;-74
2023/02/11 08:39:48;;;;;;;37.55;23.90;;;;;;;4.21;100.00;102282.50;5042371;28;20246;-73
2023/02/11 08:42:15;;;;;;;37.05;24.02;;;;;;;4.37;100.00;102288.91;5043285;28;20204;-75
2023/02/11 08:44:43;;;;;;;42.85;24.88;;;;;;;4.28;100.00;102289.69;5041593;28;20254;-75
2023/02/11 08:47:10;;;;;;;41.83;26.42;;;;;;;4.50;100.00;102285.47;5042625;28;20658;-73
2023/02/11 08:49:37;;;;;;;42.40;26.80;;;;;;;4.20;100.00;102290.47;5044320;28;20205;-73
2023/02/11 08:52:04;;;;;;;39.58;25.63;;;;;;;4.42;100.00;102286.28;5044380;28;20228;-73
2023/02/11 08:54:31;;;;;;;37.40;26.25;;;;;;;4.29;100.00;102286.13;5048041;28;20244;-74
2023/02/11 08:56:58;;;;;;;44.78;28.98;;;;;;;4.32;100.00;102285.25;5046810;28;20276;-74
2023/02/11 08:59:24;;;;;;;41.70;26.50;;;;;;;4.23;100.00;102287.84;5047559;28;20223;-75
2023/02/11 09:01:52;;;;;;;36.97;25.17;;;;;;;4.17;100.00;102294.00;5051054;28;20199;-75
2023/02/11 09:04:19;;;;;;;39.97;25.52;;;;;;;4.06;100.00;102301.88;5058633;28;20231;-74
2023/02/11 09:06:46;;;;;;;46.45;27.38;;;;;;;3.99;100.00;102297.34;5060139;28;20195;-74
2023/02/11 09:09:14;;;;;;;42.95;24.83;;;;;;;4.21;100.00;102284.28;5047793;28;20564;-73
2023/02/11 09:11:42;;;;;;;37.80;24.80;;;;;;;4.24;100.00;102290.53;5055038;28;20223;-73
2023/02/11 09:14:15;;;;;;;37.88;23.88;;;;;;;4.08;100.00;102301.91;5056215;28;20235;-74
2023/02/11 09:16:43;;;;;;;40.13;25.60;;;;;;;4.22;100.00;102296.72;5064205;28;20670;-73
2023/02/11 09:19:11;;;;;;;45.25;27.20;;;;;;;4.21;100.00;102295.84;5060463;28;20200;-74
2023/02/11 09:21:38;;;;;;;39.47;25.30;;;;;;;4.26;100.00;102291.44;5043134;28;20243;-74
2023/02/11 09:24:05;;;;;;;38.15;26.20;;;;;;;4.59;100.00;102282.00;5042067;28;20312;-73
2023/02/11 09:26:34;;;;;;;34.47;23.60;;;;;;;4.75;100.00;102291.06;5045367;28;20205;-73
2023/02/11 09:29:02;;;;;;;37.97;25.15;;;;;;;4.65;100.00;102295.38;5042950;28;20211;-73
2023/02/11 09:31:30;;;;;;;43.25;26.17;;;;;;;4.75;100.00;102310.63;5037768;28;20610;-74
2023/02/11 09:33:59;;;;;;;39.50;24.45;;;;;;;4.64;100.00;102311.41;5037443;28;20228;-73
2023/02/11 09:36:29;;;;;;;41.38;24.92;;;;;;;4.67;100.00;102314.09;5041190;28;20215;-70
2023/02/11 09:38:58;;;;;;;40.47;23.67;;;;;;;4.65;100.00;102314.06;5042773;28;20201;-72
2023/02/11 09:41:40;;;;;;;35.95;25.00;;;;;;;4.73;100.00;102317.72;5036302;28;20298;-70
2023/02/11 09:44:10;;;;;;;40.45;25.95;;;;;;;4.68;100.00;102318.53;5035172;28;20219;-72
2023/02/11 09:46:41;;;;;;;38.38;26.23;;;;;;;4.88;100.00;102322.28;5037465;28;20203;-71
2023/02/11 09:49:17;;;;;;;43.70;26.58;;;;;;;5.15;100.00;102323.41;5045827;28;20203;-71
2023/02/11 09:51:49;;;;;;;38.20;25.67;;;;;;;5.02;100.00;102330.44;5056503;28;20214;-72
2023/02/11 09:54:21;;;;;;;37.92;25.60;;;;;;;4.99;100.00;102328.63;5054562;28;20228;-72
2023/02/11 09:56:48;;;;;;;38.95;25.52;;;;;;;5.06;100.00;102334.03;5054948;28;20191;-71
2023/02/11 09:59:16;;;;;;;44.55;26.95;;;;;;;5.14;100.00;102321.63;5041281;28;20222;-71
2023/02/11 10:01:48;;;;;;;41.50;26.42;;;;;;;5.22;100.00;102319.88;5037298;28;20201;-71
2023/02/11 10:04:22;;;;;;;39.92;27.20;;;;;;;5.12;100.00;102308.25;5048298;28;20241;-74
2023/02/11 10:06:54;;;;;;;42.03;25.27;;;;;;;5.29;100.00;102313.75;5069765;28;20208;-71
2023/02/11 10:09:42;;;;;;;44.58;25.83;;;;;;;5.81;100.00;102307.78;5057583;28;20191;-74
2023/02/11 10:12:23;;;;;;;40.72;27.08;;;;;;;6.00;100.00;102317.72;5056564;28;20262;-73
2023/02/11 10:15:24;;;;;;;40.28;23.17;;;;;;;5.88;100.00;102312.28;5058466;28;20214;-72
2023/02/11 10:18:04;;;;;;;39.13;25.83;;;;;;;6.01;100.00;102310.56;5045316;28;20286;-72
2023/02/11 10:20:36;;;;;;;41.42;26.92;;;;;;;6.14;100.00;102309.75;5062832;28;20189;-71
2023/02/11 10:23:13;;;;;;;34.63;22.35;;;;;;;6.34;100.00;102306.25;5061844;28;20231;-72
2023/02/11 10:25:44;;;;;;;37.90;24.85;;;;;;;6.05;100.00;102313.28;5062372;28;20205;-69
2023/02/11 10:28:13;;;;;;;43.92;26.75;;;;;;;6.12;100.00;102308.84;5060414;28;20196;-74
2023/02/11 10:30:43;;;;;;;40.42;23.75;;;;;;;5.99;100.00;102302.56;5058600;28;20228;-72
2023/02/11 10:33:17;;;;;;;40.78;25.55;;;;;;;6.08;100.00;102319.53;5055647;28;20298;-70
2023/02/11 10:35:44;;;;;;;106.90;65.63;;;;;;;6.68;100.00;102325.94;5054416;28;20199;-70
2023/02/11 10:38:12;;;;;;;46.55;28.70;;;;;;;6.30;100.00;102328.53;5053785;28;20683;-73
2023/02/11 10:40:39;;;;;;;38.70;25.85;;;;;;;6.23;100.00;102335.63;5053108;28;20205;-72
2023/02/11 10:43:12;;;;;;;42.55;25.80;;;;;;;6.26;100.00;102325.84;5050061;28;20217;-73
2023/02/11 10:45:42;;;;;;;44.63;27.15;;;;;;;6.14;100.00;102327.59;5044436;28;20213;-75
2023/02/11 10:48:38;;;;;;;41.20;26.00;;;;;;;6.25;100.00;102321.38;5032840;28;20188;-72
2023/02/11 10:51:15;;;;;;;42.53;26.48;;;;;;;6.28;100.00;102319.59;5052966;28;20228;-74
2023/02/11 10:53:44;;;;;;;40.72;26.13;;;;;;;6.24;100.00;102334.72;5052665;28;20223;-71
2023/02/11 10:56:14;;;;;;;38.55;24.70;;;;;;;6.21;100.00;102340.09;5053343;28;20204;-73
2023/02/11 10:58:45;;;;;;;38.20;26.38;;;;;;;6.04;100.00;102322.19;5052793;28;20200;-73
2023/02/11 11:01:13;;;;;;;42.75;26.08;;;;;;;5.97;100.00;102319.47;5053579;28;20184;-74
2023/02/11 11:03:47;;;;;;;36.28;23.88;;;;;;;6.04;100.00;102316.84;5052128;28;20233;-72
2023/02/11 11:06:14;;;;;;;38.13;24.40;;;;;;;5.99;100.00;102313.28;5052122;28;20850;-73
2023/02/11 11:08:44;;;;;;;43.40;24.73;;;;;;;6.06;100.00;102308.84;5052078;28;20219;-73
2023/02/11 11:11:12;;;;;;;41.33;26.35;;;;;;;6.08;100.00;102308.81;5051995;28;20229;-72
2023/02/11 11:13:42;;;;;;;39.17;24.88;;;;;;;6.16;100.00;102313.31;5053190;28;20658;-73
2023/02/11 11:16:24;;;;;;;44.55;24.60;;;;;;;6.29;100.00;102311.56;5052011;28;20196;-72
2023/02/11 11:18:52;;;;;;;42.67;25.50;;;;;;;6.36;100.00;102302.69;5052850;28;20195;-73
2023/02/11 11:21:22;;;;;;;36.75;23.20;;;;;;;6.31;100.00;102316.91;5053136;28;20200;-74
2023/02/11 11:23:56;;;;;;;40.45;24.33;;;;;;;6.17;100.00;102306.16;5052085;28;20717;-71